createdAt,value
2022-09-05T00:00:20.888Z,95.14
2022-09-05T00:03:17.296Z,95.06
2022-09-05T00:06:05.789Z,95.15
2022-09-05T00:09:09.892Z,94.57
2022-09-05T00:11:57.375Z,94.73
2022-09-05T00:15:16.855Z,95.15
2022-09-05T00:19:05.211Z,95.10
2022-09-05T00:24:28.428Z,95.55
2022-09-05T00:24:42.297Z,95.42
2022-09-05T00:27:28.037Z,95.72
2022-09-05T00:31:07.125Z,94.99
2022-09-05T00:33:24.528Z,94.47
2022-09-05T00:36:10.588Z,94.26
2022-09-05T00:38:41.378Z,94.52
2022-09-05T00:41:11.916Z,94.54
2022-09-05T00:43:44.088Z,95.10
2022-09-05T00:46:18.975Z,95.32
2022-09-05T00:49:23.324Z,95.93
2022-09-05T00:52:10.193Z,95.83
2022-09-05T00:54:55.129Z,95.23
2022-09-05T00:57:42.359Z,95.16
2022-09-05T01:00:35.032Z,94.77
2022-09-05T01:03:12.854Z,95.28
2022-09-05T01:05:49.532Z,95.56
2022-09-05T01:08:15.965Z,95.89
2022-09-05T01:11:01.009Z,96.44
2022-09-05T01:13:39.741Z,96.26
2022-09-05T01:16:33.470Z,96.19
2022-09-05T01:19:36.910Z,96.26
2022-09-05T01:22:29.333Z,96.17
2022-09-05T01:25:04.927Z,96.11
2022-09-05T01:28:35.708Z,96.24
2022-09-05T01:30:52.010Z,98.44
2022-09-05T01:33:39.520Z,98.31
2022-09-05T01:36:38.927Z,97.43
2022-09-05T01:40:15.545Z,97.32
2022-09-05T01:42:29.011Z,99.18
2022-09-05T01:45:24.615Z,99.08
2022-09-05T01:48:21.877Z,99.76
2022-09-05T01:51:28.909Z,99.21
2022-09-05T01:54:31.176Z,98.21
2022-09-05T01:57:14.013Z,99.32
2022-09-05T01:59:54.085Z,100.00
2022-09-05T02:02:39.069Z,100.00
2022-09-05T02:05:08.672Z,100.00
2022-09-05T02:07:53.912Z,100.00
2022-09-05T02:10:47.618Z,100.00
2022-09-05T02:13:27.080Z,100.00
2022-09-05T02:16:10.168Z,100.00
2022-09-05T02:18:36.612Z,100.00
2022-09-05T02:21:12.310Z,100.00
2022-09-05T02:23:46.389Z,100.00
2022-09-05T02:26:22.945Z,100.00
2022-09-05T02:28:52.436Z,100.00
2022-09-05T02:31:41.924Z,100.00
2022-09-05T02:34:12.895Z,100.00
2022-09-05T02:36:53.586Z,100.00
2022-09-05T02:45:00.357Z,100.00
2022-09-05T02:45:08.602Z,100.00
2022-09-05T02:45:35.958Z,100.00
2022-09-05T02:48:16.281Z,100.00
2022-09-05T02:57:35.754Z,100.00
2022-09-05T02:57:46.439Z,100.00
2022-09-05T02:58:04.451Z,100.00
2022-09-05T03:00:01.600Z,100.00
2022-09-05T03:02:43.172Z,100.00
2022-09-05T03:05:28.809Z,100.00
2022-09-05T03:08:17.042Z,100.00
2022-09-05T03:11:14.641Z,100.00
2022-09-05T03:14:18.630Z,100.00
2022-09-05T03:17:13.881Z,100.00
2022-09-05T03:19:56.417Z,100.00
2022-09-05T03:22:47.796Z,100.00
2022-09-05T03:25:40.765Z,100.00
2022-09-05T03:28:44.735Z,100.00
2022-09-05T03:31:45.224Z,100.00
2022-09-05T03:34:25.748Z,100.00
2022-09-05T03:37:23.238Z,100.00
2022-09-05T03:40:17.239Z,100.00
2022-09-05T03:42:48.964Z,100.00
2022-09-05T03:45:37.166Z,100.00
2022-09-05T03:48:28.501Z,100.00
2022-09-05T03:57:11.072Z,100.00
2022-09-05T03:57:15.328Z,100.00
2022-09-05T03:57:23.099Z,100.00
2022-09-05T03:59:55.141Z,100.00
2022-09-05T04:08:07.189Z,100.00
2022-09-05T04:08:16.078Z,100.00
2022-09-05T04:08:34.337Z,100.00
2022-09-05T04:11:09.502Z,100.00
2022-09-05T04:13:47.928Z,100.00
2022-09-05T04:16:19.419Z,100.00
2022-09-05T04:18:50.324Z,100.00
2022-09-05T04:21:20.641Z,100.00
2022-09-05T04:23:51.480Z,100.00
2022-09-05T04:26:55.202Z,100.00
2022-09-05T04:29:49.680Z,100.00
2022-09-05T04:32:26.258Z,100.00
2022-09-05T04:35:20.480Z,100.00
2022-09-05T04:38:04.807Z,100.00
2022-09-05T04:40:37.234Z,100.00
2022-09-05T04:43:23.924Z,100.00
2022-09-05T04:45:59.469Z,100.00
2022-09-05T04:48:37.017Z,100.00
2022-09-05T04:51:10.194Z,100.00
2022-09-05T04:53:57.837Z,100.00
2022-09-05T04:56:32.545Z,100.00
2022-09-05T05:02:12.776Z,100.00
2022-09-05T05:06:09.767Z,100.00
2022-09-05T05:06:13.726Z,100.00
2022-09-05T05:07:59.273Z,100.00
2022-09-05T05:16:56.375Z,100.00
2022-09-05T05:18:06.876Z,100.00
2022-09-05T05:18:11.156Z,100.00
2022-09-05T05:20:40.469Z,100.00
2022-09-05T05:23:09.545Z,100.00
2022-09-05T05:25:53.104Z,100.00
2022-09-05T05:28:38.385Z,100.00
2022-09-05T05:31:22.161Z,100.00
2022-09-05T05:33:51.233Z,100.00
2022-09-05T05:36:26.648Z,100.00
2022-09-05T05:39:12.503Z,100.00
2022-09-05T05:41:50.169Z,100.00
2022-09-05T05:44:22.770Z,100.00
2022-09-05T05:47:15.692Z,99.80
2022-09-05T05:50:01.701Z,99.58
2022-09-05T05:53:01.993Z,99.44
2022-09-05T05:55:51.733Z,99.14
2022-09-05T05:58:48.632Z,98.82
2022-09-05T06:01:30.280Z,99.05
2022-09-05T06:04:25.912Z,98.73
2022-09-05T06:07:21.910Z,98.78
2022-09-05T06:14:48.174Z,98.31
2022-09-05T06:15:02.642Z,97.17
2022-09-05T06:16:22.904Z,95.04
2022-09-05T06:18:55.116Z,94.31
2022-09-05T06:22:10.216Z,93.62
2022-09-05T06:24:54.321Z,92.22
2022-09-05T06:28:18.720Z,91.80
2022-09-05T06:31:02.086Z,90.30
2022-09-05T06:34:02.914Z,89.02
2022-09-05T06:36:57.508Z,88.27
2022-09-05T06:39:29.656Z,86.63
2022-09-05T06:42:42.780Z,86.32
2022-09-05T06:45:34.488Z,84.65
2022-09-05T06:48:44.307Z,84.97
2022-09-05T06:51:28.675Z,84.35
2022-09-05T06:54:06.993Z,84.12
2022-09-05T06:57:05.960Z,84.35
2022-09-05T06:59:50.730Z,84.25
2022-09-05T07:02:59.415Z,83.86
2022-09-05T07:05:50.890Z,83.82
2022-09-05T07:08:35.178Z,83.85
2022-09-05T07:11:23.714Z,82.29
2022-09-05T07:14:13.125Z,81.87
2022-09-05T07:16:49.828Z,81.91
2022-09-05T07:19:31.584Z,81.99
2022-09-05T07:22:47.477Z,80.88
2022-09-05T07:25:26.328Z,80.15
2022-09-05T07:28:29.899Z,78.32
2022-09-05T07:31:03.861Z,77.43
2022-09-05T07:33:31.396Z,76.58
2022-09-05T07:36:08.576Z,74.19
2022-09-05T07:38:54.867Z,74.58
2022-09-05T07:41:30.353Z,74.10
2022-09-05T07:44:02.808Z,72.61
2022-09-05T07:46:37.461Z,71.57
2022-09-05T07:49:16.160Z,70.99
2022-09-05T07:56:49.663Z,70.21
2022-09-05T07:56:52.809Z,68.84
2022-09-05T07:57:51.684Z,69.86
2022-09-05T08:00:26.738Z,67.67
2022-09-05T08:02:59.155Z,67.35
2022-09-05T08:05:34.839Z,66.05
2022-09-05T08:08:07.906Z,66.63
2022-09-05T08:11:24.204Z,65.73
2022-09-05T08:13:42.571Z,66.16
2022-09-05T08:16:16.690Z,64.55
2022-09-05T08:18:50.123Z,63.69
2022-09-05T08:21:27.701Z,64.18
2022-09-05T08:24:29.656Z,63.91
2022-09-05T08:26:56.029Z,63.38
2022-09-05T08:29:27.093Z,63.17
2022-09-05T08:32:44.198Z,62.86
2022-09-05T08:35:22.468Z,63.04
2022-09-05T08:37:51.143Z,62.72
2022-09-05T08:40:49.921Z,62.60
2022-09-05T08:46:36.041Z,61.72
2022-09-05T08:46:49.129Z,62.89
2022-09-05T08:49:38.736Z,61.88
2022-09-05T08:53:01.332Z,61.55
2022-09-05T08:55:39.798Z,61.44
2022-09-05T08:58:33.153Z,61.58
2022-09-05T09:01:26.380Z,61.21
2022-09-05T09:04:38.629Z,60.07
2022-09-05T09:07:51.166Z,60.58
2022-09-05T09:10:28.793Z,61.03
2022-09-05T09:13:10.497Z,58.83
2022-09-05T09:15:57.562Z,59.22
2022-09-05T09:18:50.432Z,59.30
2022-09-05T09:21:29.029Z,58.70
2022-09-05T09:24:13.994Z,58.87
2022-09-05T09:27:44.564Z,58.66
2022-09-05T09:30:16.025Z,59.01
2022-09-05T09:32:50.143Z,59.24
2022-09-05T09:35:50.757Z,58.17
2022-09-05T09:39:13.124Z,56.20
2022-09-05T09:42:32.547Z,56.41
2022-09-05T09:45:27.427Z,57.09
2022-09-05T09:47:55.395Z,56.30
2022-09-05T09:50:58.465Z,56.07
2022-09-05T09:53:38.011Z,55.11
2022-09-05T09:56:22.972Z,54.31
2022-09-05T09:59:11.394Z,54.45
2022-09-05T10:01:50.460Z,54.34
2022-09-05T10:10:28.192Z,52.18
2022-09-05T10:10:56.272Z,54.19
2022-09-05T10:14:49.451Z,53.84
2022-09-05T10:17:29.727Z,52.92
2022-09-05T10:20:10.440Z,53.05
2022-09-05T10:22:49.500Z,52.34
2022-09-05T10:25:49.809Z,50.70
2022-09-05T11:11:54.745Z,48.29
2022-09-05T11:14:43.011Z,48.06
2022-09-05T11:17:40.813Z,48.21
2022-09-05T11:20:35.018Z,48.03
2022-09-05T11:23:22.611Z,47.49
2022-09-05T11:26:30.138Z,47.21
2022-09-05T11:29:14.060Z,46.28
2022-09-05T11:32:27.009Z,46.09
2022-09-05T11:39:49.192Z,46.42
2022-09-05T11:39:56.397Z,46.30
2022-09-05T11:41:05.250Z,45.38
2022-09-05T11:43:37.637Z,45.26
2022-09-05T11:46:13.336Z,44.58
2022-09-05T11:49:05.720Z,45.05
2022-09-05T11:51:52.384Z,45.30
2022-09-05T11:54:43.680Z,43.98
2022-09-05T11:57:32.025Z,43.67
2022-09-05T12:00:31.515Z,43.88
2022-09-05T12:03:56.485Z,43.06
2022-09-05T12:06:22.787Z,42.27
2022-09-05T12:08:59.071Z,44.32
2022-09-05T12:11:52.039Z,43.77
2022-09-05T12:14:34.501Z,42.49
2022-09-05T12:17:35.012Z,43.01
2022-09-05T12:20:22.225Z,43.33
2022-09-05T12:23:05.532Z,42.91
2022-09-05T12:27:40.301Z,42.44
2022-09-05T12:29:33.483Z,43.22
2022-09-05T12:33:32.734Z,43.02
2022-09-05T12:36:08.392Z,43.18
2022-09-05T12:40:51.941Z,43.19
2022-09-05T12:41:34.562Z,41.77
2022-09-05T12:43:57.434Z,42.47
2022-09-05T12:46:26.474Z,41.51
2022-09-05T12:49:07.023Z,41.23
2022-09-05T12:51:46.139Z,41.05
2022-09-05T12:54:44.328Z,40.50
2022-09-05T13:01:08.165Z,39.98
2022-09-05T13:03:14.742Z,39.60
2022-09-05T13:03:28.049Z,39.34
2022-09-05T13:05:58.205Z,39.32
2022-09-05T13:08:33.207Z,39.23
2022-09-05T13:14:49.207Z,38.86
2022-09-05T13:14:54.036Z,38.51
2022-09-05T13:16:41.616Z,38.31
2022-09-05T13:19:21.598Z,39.28
2022-09-05T13:21:50.268Z,38.80
2022-09-05T13:24:27.585Z,37.76
2022-09-05T13:27:09.404Z,37.54
2022-09-05T13:31:23.279Z,37.08
2022-09-05T13:38:11.856Z,35.80
2022-09-05T13:38:17.483Z,36.19
2022-09-05T13:39:04.609Z,35.17
2022-09-05T13:41:36.717Z,34.94
2022-09-05T13:44:26.471Z,35.51
2022-09-05T13:47:10.578Z,34.88
2022-09-05T13:50:23.033Z,34.13
2022-09-05T13:52:55.089Z,34.17
2022-09-05T13:55:45.189Z,34.48
2022-09-05T13:58:22.111Z,32.93
2022-09-05T14:01:03.658Z,32.20
2022-09-05T14:03:40.336Z,33.14
2022-09-05T14:06:46.125Z,33.10
2022-09-05T14:09:37.263Z,32.94
2022-09-05T14:12:29.618Z,32.23
2022-09-05T14:15:12.775Z,33.23
2022-09-05T14:18:20.697Z,34.70
2022-09-05T14:21:17.395Z,35.53
2022-09-05T14:23:53.821Z,36.98
2022-09-05T14:26:44.072Z,36.38
2022-09-05T14:29:13.977Z,36.78
2022-09-05T14:37:36.883Z,36.92
2022-09-05T14:37:42.572Z,35.11
2022-09-05T14:38:09.785Z,35.43
2022-09-05T14:40:58.304Z,34.30
2022-09-05T14:43:33.789Z,35.85
2022-09-05T14:46:38.728Z,35.33
2022-09-05T14:49:24.241Z,36.80
2022-09-05T14:51:54.802Z,36.13
2022-09-05T15:02:41.866Z,36.52
2022-09-05T15:03:00.176Z,35.41
2022-09-05T15:03:09.355Z,35.28
2022-09-05T15:05:45.712Z,35.11
2022-09-05T15:09:58.642Z,34.48
2022-09-05T15:12:21.380Z,33.35
2022-09-05T15:14:07.497Z,33.95
2022-09-05T15:16:38.645Z,34.74
2022-09-05T15:19:05.594Z,33.88
2022-09-05T15:21:37.873Z,34.39
2022-09-05T15:24:19.105Z,34.18
2022-09-05T15:26:59.170Z,33.47
2022-09-05T15:29:31.055Z,32.92
2022-09-05T15:32:17.340Z,33.44
2022-09-05T15:34:43.879Z,32.97
2022-09-05T15:37:36.647Z,32.28
2022-09-05T15:40:22.807Z,32.52
2022-09-05T15:43:02.033Z,32.07
2022-09-05T15:45:37.250Z,32.52
2022-09-05T15:48:16.388Z,33.60
2022-09-05T15:50:52.154Z,33.92
2022-09-05T15:53:31.493Z,34.99
2022-09-05T15:56:16.677Z,36.22
2022-09-05T15:58:56.347Z,37.27
2022-09-05T16:01:52.479Z,36.68
2022-09-05T16:10:31.214Z,37.43
2022-09-05T16:10:38.774Z,38.90
2022-09-05T16:10:48.233Z,37.68
2022-09-05T16:12:58.825Z,39.35
2022-09-05T16:21:51.315Z,39.33
2022-09-05T16:23:13.192Z,39.33
2022-09-05T16:23:26.780Z,40.28
2022-09-05T16:24:12.218Z,40.96
2022-09-05T16:26:46.744Z,40.89
2022-09-05T16:29:26.075Z,41.53
2022-09-05T16:31:59.298Z,43.37
2022-09-05T16:34:44.289Z,45.23
2022-09-05T16:37:19.180Z,49.00
2022-09-05T16:40:07.806Z,52.44
2022-09-05T16:42:46.412Z,51.77
2022-09-05T16:45:32.503Z,49.89
2022-09-05T16:48:04.845Z,51.93
2022-09-05T16:50:53.393Z,52.81
2022-09-05T16:53:37.894Z,53.20
2022-09-05T16:56:14.659Z,55.32
2022-09-05T16:58:46.229Z,50.46
2022-09-05T17:01:27.822Z,51.78
2022-09-05T17:04:06.533Z,51.09
2022-09-05T17:06:45.723Z,52.23
2022-09-05T17:09:23.212Z,55.35
2022-09-05T17:12:00.265Z,54.03
2022-09-05T17:14:34.571Z,55.09
2022-09-05T17:17:20.274Z,55.66
2022-09-05T17:20:06.002Z,56.52
2022-09-05T17:26:29.200Z,56.18
2022-09-05T17:29:23.805Z,59.18
2022-09-05T17:29:36.534Z,59.30
2022-09-05T17:32:01.944Z,60.23
2022-09-05T17:35:17.298Z,60.91
2022-09-05T17:37:54.730Z,60.02
2022-09-05T17:41:02.108Z,60.64
2022-09-05T17:43:33.061Z,61.71
2022-09-05T17:46:11.541Z,61.79
2022-09-05T17:48:49.248Z,61.45
2022-09-05T17:51:34.385Z,62.38
2022-09-05T17:54:02.860Z,63.92
2022-09-05T17:56:39.928Z,64.50
2022-09-05T17:59:07.721Z,66.49
2022-09-05T18:01:35.756Z,65.66
2022-09-05T18:04:16.316Z,65.82
2022-09-05T18:06:59.235Z,67.80
2022-09-05T18:09:48.188Z,66.84
2022-09-05T18:13:13.419Z,67.32
2022-09-05T18:15:27.202Z,68.42
2022-09-05T18:17:53.721Z,70.61
2022-09-05T18:20:47.133Z,70.24
2022-09-05T18:26:20.837Z,71.26
2022-09-05T18:29:14.895Z,70.54
2022-09-05T18:31:43.430Z,69.30
2022-09-05T18:34:13.657Z,70.18
2022-09-05T18:36:42.464Z,71.38
2022-09-05T18:39:38.262Z,71.78
2022-09-05T18:42:33.178Z,72.64
2022-09-05T18:45:16.061Z,72.92
2022-09-05T18:47:59.337Z,72.64
2022-09-05T18:50:33.905Z,72.16
2022-09-05T18:53:09.033Z,71.49
2022-09-05T18:56:13.551Z,71.79
2022-09-05T18:58:34.361Z,72.09
2022-09-05T19:01:22.208Z,72.63
2022-09-05T19:03:52.318Z,72.58
2022-09-05T19:06:34.623Z,73.14
2022-09-05T19:09:08.605Z,72.21
2022-09-05T19:11:35.132Z,72.12
2022-09-05T19:14:43.346Z,70.97
2022-09-05T19:17:14.634Z,70.52
2022-09-05T19:20:31.590Z,70.51
2022-09-05T19:23:10.546Z,71.86
2022-09-05T19:25:42.611Z,72.55
2022-09-05T19:32:17.259Z,72.43
2022-09-05T19:36:54.645Z,74.06
2022-09-05T19:36:57.822Z,72.42
2022-09-05T19:37:29.363Z,74.46
2022-09-05T19:47:26.472Z,75.82
2022-09-05T19:47:26.820Z,75.86
2022-09-05T19:47:47.967Z,75.51
2022-09-05T19:48:19.108Z,73.77
2022-09-05T19:50:47.199Z,75.13
2022-09-05T19:53:16.552Z,75.89
2022-09-05T19:55:44.084Z,76.32
2022-09-05T19:58:29.543Z,76.19
2022-09-05T20:01:08.285Z,77.27
2022-09-05T20:03:41.001Z,77.36
2022-09-05T20:06:29.331Z,77.59
2022-09-05T20:09:15.030Z,77.48
2022-09-05T20:11:52.528Z,76.33
2022-09-05T20:14:30.927Z,78.43
2022-09-05T20:17:20.911Z,78.63
2022-09-05T20:19:48.074Z,79.64
2022-09-05T20:22:47.365Z,79.66
2022-09-05T20:25:35.560Z,79.13
2022-09-05T20:28:09.561Z,79.30
2022-09-05T20:30:40.649Z,79.37
2022-09-05T20:33:13.753Z,79.07
2022-09-05T20:39:42.379Z,79.08
2022-09-05T20:43:29.626Z,80.50
2022-09-05T20:43:32.445Z,79.65
2022-09-05T20:44:24.764Z,79.88
2022-09-05T20:51:00.630Z,80.07
2022-09-05T20:54:15.737Z,80.67
2022-09-05T20:54:27.073Z,79.66
2022-09-05T20:55:41.364Z,78.80
2022-09-05T20:58:21.016Z,79.45
2022-09-05T21:01:21.179Z,81.16
2022-09-05T21:03:53.265Z,81.73
2022-09-05T21:06:23.407Z,81.98
2022-09-05T21:08:52.138Z,81.54
2022-09-05T21:11:29.196Z,82.12
2022-09-05T21:13:59.348Z,82.91
2022-09-05T21:16:32.932Z,83.80
2022-09-05T21:18:59.502Z,83.27
2022-09-05T21:21:32.148Z,83.51
2022-09-05T21:24:16.763Z,83.68
2022-09-05T21:26:46.587Z,83.96
2022-09-05T21:29:13.032Z,83.73
2022-09-05T21:31:54.524Z,83.72
2022-09-05T21:34:35.162Z,83.69
2022-09-05T21:37:07.561Z,83.77
2022-09-05T21:39:58.575Z,83.82
2022-09-05T21:47:33.354Z,84.29
2022-09-05T21:47:38.862Z,83.40
2022-09-05T21:48:10.418Z,83.14
2022-09-05T21:50:45.443Z,83.01
2022-09-05T21:56:19.087Z,83.30
2022-09-05T21:59:21.454Z,84.06
2022-09-05T21:59:22.614Z,84.58
2022-09-05T22:01:51.864Z,84.92
2022-09-05T22:04:21.712Z,85.39
2022-09-05T22:06:48.888Z,85.54
2022-09-05T22:09:17.741Z,85.74
2022-09-05T22:11:49.957Z,86.60
2022-09-05T22:14:18.152Z,86.97
2022-09-05T22:16:47.237Z,87.39
2022-09-05T22:19:17.707Z,86.91
2022-09-05T22:21:44.443Z,86.60
2022-09-05T22:24:11.523Z,87.22
2022-09-05T22:27:11.113Z,86.68
2022-09-05T22:29:34.377Z,86.35
2022-09-05T22:32:01.298Z,86.12
2022-09-05T22:34:30.790Z,85.40
2022-09-05T22:36:57.477Z,85.25
2022-09-05T22:39:36.435Z,84.97
2022-09-05T22:42:09.932Z,84.16
2022-09-05T22:44:39.174Z,83.57
2022-09-05T22:47:07.642Z,83.38
2022-09-05T22:49:36.165Z,83.69
2022-09-05T22:52:08.229Z,84.24
2022-09-05T22:54:35.512Z,84.86
2022-09-05T22:57:03.183Z,84.30
2022-09-05T22:59:29.774Z,83.99
2022-09-05T23:01:56.362Z,84.81
2022-09-05T23:04:23.448Z,84.89
2022-09-05T23:06:50.013Z,85.43
2022-09-05T23:09:16.494Z,86.18
2022-09-05T23:11:43.010Z,86.63
2022-09-05T23:14:09.464Z,86.37
2022-09-05T23:16:35.931Z,87.10
2022-09-05T23:19:02.587Z,88.51
2022-09-05T23:21:29.124Z,89.80
2022-09-05T23:23:55.711Z,90.76
2022-09-05T23:26:22.378Z,92.01
2022-09-05T23:28:48.865Z,91.93
2022-09-05T23:31:15.503Z,90.51
2022-09-05T23:33:42.230Z,89.86
2022-09-05T23:36:13.442Z,90.25
2022-09-05T23:38:42.305Z,90.44
2022-09-05T23:41:13.135Z,89.94
2022-09-05T23:43:39.924Z,89.02
2022-09-05T23:46:06.899Z,88.12
2022-09-05T23:48:33.821Z,88.15
2022-09-05T23:51:09.335Z,87.88
2022-09-05T23:53:36.297Z,87.90
2022-09-05T23:56:04.779Z,87.78
2022-09-05T23:58:32.073Z,87.92
